createdAt,value
2019-01-14T00:00:56.993Z,0.00
2019-01-14T00:02:49.878Z,0.00
2019-01-14T00:03:49.759Z,0.00
2019-01-14T00:05:42.678Z,0.00
2019-01-14T00:06:42.499Z,0.00
2019-01-14T00:08:35.404Z,0.00
2019-01-14T00:09:35.242Z,0.00
2019-01-14T00:11:28.153Z,0.00
2019-01-14T00:12:28.042Z,0.00
2019-01-14T00:14:20.878Z,0.00
2019-01-14T00:15:20.786Z,0.00
2019-01-14T00:17:13.661Z,0.00
2019-01-14T00:18:13.528Z,0.00
2019-01-14T00:20:06.413Z,0.00
2019-01-14T00:21:06.256Z,0.00
2019-01-14T00:22:59.137Z,0.00
2019-01-14T00:23:58.991Z,0.00
2019-01-14T00:25:51.870Z,0.00
2019-01-14T00:26:51.739Z,0.00
2019-01-14T00:28:44.613Z,0.00
2019-01-14T00:29:44.488Z,0.00
2019-01-14T00:31:37.374Z,0.00
2019-01-14T00:32:37.282Z,0.00
2019-01-14T00:34:30.138Z,0.00
2019-01-14T00:35:29.997Z,0.00
2019-01-14T00:37:22.887Z,0.00
2019-01-14T00:38:22.738Z,0.00
2019-01-14T00:40:15.611Z,0.00
2019-01-14T00:41:15.483Z,0.00
2019-01-14T00:43:09.352Z,0.00
2019-01-14T00:44:08.850Z,0.00
2019-01-14T00:46:02.260Z,0.00
2019-01-14T00:47:02.108Z,0.00
2019-01-14T00:48:55.000Z,0.00
2019-01-14T00:49:54.906Z,0.00
2019-01-14T00:51:47.760Z,0.00
2019-01-14T00:52:47.642Z,0.00
2019-01-14T00:54:40.498Z,0.00
2019-01-14T00:55:40.355Z,0.00
2019-01-14T00:57:33.360Z,0.00
2019-01-14T00:58:33.221Z,0.00
2019-01-14T01:00:26.088Z,0.00
2019-01-14T01:01:25.970Z,0.00
2019-01-14T01:03:19.879Z,0.00
2019-01-14T01:04:19.794Z,0.00
2019-01-14T01:06:12.753Z,0.00
2019-01-14T01:07:12.662Z,0.00
2019-01-14T01:09:05.525Z,0.00
2019-01-14T01:10:05.353Z,0.00
2019-01-14T01:11:58.313Z,0.00
2019-01-14T01:12:58.207Z,0.00
2019-01-14T01:14:51.069Z,0.00
2019-01-14T01:15:50.951Z,0.00
2019-01-14T01:17:43.978Z,0.00
2019-01-14T01:18:43.803Z,0.00
2019-01-14T01:20:36.889Z,0.00
2019-01-14T01:21:36.638Z,0.00
2019-01-14T01:23:29.577Z,0.00
2019-01-14T01:24:29.593Z,0.00
2019-01-14T01:26:22.433Z,0.00
2019-01-14T01:27:22.345Z,0.00
2019-01-14T01:29:15.120Z,0.00
2019-01-14T01:30:14.996Z,0.00
2019-01-14T01:32:08.582Z,0.00
2019-01-14T01:33:08.477Z,0.00
2019-01-14T01:35:01.827Z,0.00
2019-01-14T01:36:01.201Z,0.00
2019-01-14T01:37:54.100Z,0.00
2019-01-14T01:38:53.956Z,0.00
2019-01-14T01:40:46.843Z,0.00
2019-01-14T01:41:46.707Z,0.00
2019-01-14T01:43:39.594Z,0.00
2019-01-14T01:44:39.461Z,0.00
2019-01-14T01:46:32.368Z,0.00
2019-01-14T01:47:32.213Z,0.00
2019-01-14T01:49:25.093Z,0.00
2019-01-14T01:50:24.954Z,0.00
2019-01-14T01:52:18.397Z,0.00
2019-01-14T01:53:18.247Z,0.00
2019-01-14T01:55:11.094Z,0.00
2019-01-14T01:56:10.975Z,0.00
2019-01-14T01:58:03.845Z,0.00
2019-01-14T01:59:03.711Z,0.00
2019-01-14T02:00:56.597Z,0.00
2019-01-14T02:01:56.461Z,0.00
2019-01-14T02:03:49.359Z,0.00
2019-01-14T02:04:49.283Z,0.00
2019-01-14T02:06:42.098Z,0.00
2019-01-14T02:07:41.982Z,0.00
2019-01-14T02:09:34.876Z,0.00
2019-01-14T02:10:34.748Z,0.00
2019-01-14T02:12:28.029Z,0.00
2019-01-14T02:13:27.875Z,0.00
2019-01-14T02:15:20.764Z,0.00
2019-01-14T02:16:20.635Z,0.00
2019-01-14T02:18:13.498Z,0.00
2019-01-14T02:19:13.371Z,0.00
2019-01-14T02:21:06.288Z,0.00
2019-01-14T02:22:06.120Z,0.00
2019-01-14T02:23:59.001Z,0.00
2019-01-14T02:24:58.866Z,0.00
2019-01-14T02:26:51.750Z,0.00
2019-01-14T02:27:51.632Z,0.00
2019-01-14T02:29:44.512Z,0.00
2019-01-14T02:30:44.393Z,0.00
2019-01-14T02:32:37.263Z,0.00
2019-01-14T02:33:37.123Z,0.00
2019-01-14T02:35:29.898Z,0.00
2019-01-14T02:36:29.778Z,0.00
2019-01-14T02:38:23.076Z,0.00
2019-01-14T02:39:22.930Z,0.00
2019-01-14T02:41:15.709Z,0.00
2019-01-14T02:42:15.578Z,0.00
2019-01-14T02:44:08.368Z,0.00
2019-01-14T02:45:08.243Z,0.00
2019-01-14T02:47:01.972Z,0.00
2019-01-14T02:48:00.887Z,0.00
2019-01-14T02:49:53.789Z,0.00
2019-01-14T02:50:53.625Z,0.00
2019-01-14T02:52:46.513Z,0.00
2019-01-14T02:53:46.389Z,0.00
2019-01-14T02:55:39.172Z,0.00
2019-01-14T02:56:39.020Z,0.00
2019-01-14T02:58:31.796Z,0.00
2019-01-14T02:59:31.671Z,0.00
2019-01-14T03:01:24.985Z,0.00
2019-01-14T03:02:24.837Z,0.00
2019-01-14T03:04:17.707Z,0.00
2019-01-14T03:05:17.652Z,0.00
2019-01-14T03:07:10.361Z,0.00
2019-01-14T03:08:10.286Z,0.00
2019-01-14T03:10:03.016Z,0.00
2019-01-14T03:11:02.897Z,0.00
2019-01-14T03:12:55.743Z,0.00
2019-01-14T03:13:55.644Z,0.00
2019-01-14T03:15:48.398Z,0.00
2019-01-14T03:16:48.303Z,0.00
2019-01-14T03:18:41.044Z,0.00
2019-01-14T03:19:40.976Z,0.00
2019-01-14T03:21:33.696Z,0.00
2019-01-14T03:22:33.561Z,0.00
2019-01-14T03:24:26.437Z,0.00
2019-01-14T03:25:26.326Z,0.00
2019-01-14T03:27:19.087Z,0.00
2019-01-14T03:28:18.962Z,0.00
2019-01-14T03:30:11.736Z,0.00
2019-01-14T03:31:11.617Z,0.00
2019-01-14T03:33:04.485Z,0.00
2019-01-14T03:34:04.371Z,0.00
2019-01-14T03:35:57.130Z,0.00
2019-01-14T03:36:57.019Z,0.00
2019-01-14T03:38:49.782Z,0.00
2019-01-14T03:39:49.664Z,0.00
2019-01-14T03:41:42.423Z,0.00
2019-01-14T03:42:42.309Z,0.00
2019-01-14T03:44:35.083Z,0.00
2019-01-14T03:45:34.966Z,0.00
2019-01-14T03:47:27.822Z,0.00
2019-01-14T03:48:27.682Z,0.00
2019-01-14T03:50:20.476Z,0.00
2019-01-14T03:51:20.342Z,0.00
2019-01-14T03:53:13.137Z,0.00
2019-01-14T03:54:12.991Z,0.00
2019-01-14T03:56:05.774Z,0.00
2019-01-14T03:57:06.972Z,0.00
2019-01-14T03:58:58.513Z,0.00
2019-01-14T03:59:58.374Z,0.00
2019-01-14T04:01:51.152Z,0.00
2019-01-14T04:02:51.031Z,0.00
2019-01-14T04:04:43.837Z,0.00
2019-01-14T04:05:43.709Z,0.00
2019-01-14T04:07:37.090Z,0.00
2019-01-14T04:08:36.428Z,0.00
2019-01-14T04:10:29.205Z,0.00
2019-01-14T04:11:29.071Z,0.00
2019-01-14T04:13:21.985Z,0.00
2019-01-14T04:14:21.830Z,0.00
2019-01-14T04:16:14.626Z,0.00
2019-01-14T04:17:14.484Z,0.00
2019-01-14T04:19:07.344Z,0.00
2019-01-14T04:20:07.222Z,0.00
2019-01-14T04:22:00.014Z,0.00
2019-01-14T04:23:01.335Z,0.00
2019-01-14T04:24:52.641Z,0.00
2019-01-14T04:25:52.518Z,0.00
2019-01-14T04:27:45.296Z,0.00
2019-01-14T04:28:45.173Z,0.00
2019-01-14T04:30:37.956Z,0.00
2019-01-14T04:31:37.816Z,0.00
2019-01-14T04:33:30.689Z,0.00
2019-01-14T04:34:30.554Z,0.00
2019-01-14T04:36:23.365Z,0.00
2019-01-14T04:37:23.261Z,0.00
2019-01-14T04:39:16.116Z,0.00
2019-01-14T04:40:15.948Z,0.00
2019-01-14T04:42:08.737Z,0.00
2019-01-14T04:43:08.608Z,0.00
2019-01-14T04:45:01.975Z,0.00
2019-01-14T04:46:01.352Z,0.00
2019-01-14T04:47:54.296Z,0.00
2019-01-14T04:48:54.166Z,0.00
2019-01-14T04:50:46.988Z,0.00
2019-01-14T04:51:46.862Z,0.00
2019-01-14T04:53:39.637Z,0.00
2019-01-14T04:54:39.502Z,0.00
2019-01-14T04:56:32.369Z,0.00
2019-01-14T04:57:32.266Z,0.00
2019-01-14T04:59:25.043Z,0.00
2019-01-14T05:00:24.903Z,0.00
2019-01-14T05:02:17.661Z,0.00
2019-01-14T05:03:17.547Z,0.00
2019-01-14T05:05:10.394Z,0.00
2019-01-14T05:06:10.301Z,0.00
2019-01-14T05:08:03.098Z,0.00
2019-01-14T05:09:02.948Z,0.00
2019-01-14T05:10:55.816Z,0.00
2019-01-14T05:11:55.693Z,0.00
2019-01-14T05:13:48.570Z,0.00
2019-01-14T05:14:48.435Z,0.00
2019-01-14T05:16:41.217Z,0.00
2019-01-14T05:17:41.092Z,0.00
2019-01-14T05:19:33.871Z,0.00
2019-01-14T05:20:33.741Z,0.00
2019-01-14T05:22:26.605Z,0.00
2019-01-14T05:23:26.482Z,0.00
2019-01-14T05:25:19.365Z,0.00
2019-01-14T05:26:19.247Z,0.00
2019-01-14T05:28:12.033Z,0.00
2019-01-14T05:29:11.874Z,0.00
2019-01-14T05:31:05.230Z,0.00
2019-01-14T05:32:04.622Z,0.00
2019-01-14T05:33:57.493Z,0.00
2019-01-14T05:34:57.371Z,0.00
2019-01-14T05:36:50.668Z,0.00
2019-01-14T05:37:50.537Z,0.00
2019-01-14T05:39:43.378Z,0.00
2019-01-14T05:40:43.253Z,0.00
2019-01-14T05:42:36.115Z,0.00
2019-01-14T05:43:36.373Z,0.00
2019-01-14T05:45:31.801Z,0.00
2019-01-14T05:46:31.650Z,0.00
2019-01-14T05:48:27.509Z,0.00
2019-01-14T05:49:27.372Z,0.00
2019-01-14T05:51:21.682Z,0.00
2019-01-14T05:52:21.555Z,0.00
2019-01-14T05:54:14.847Z,0.00
2019-01-14T05:55:14.721Z,0.00
2019-01-14T05:57:07.667Z,0.00
2019-01-14T05:58:07.457Z,0.00
2019-01-14T06:00:00.355Z,0.00
2019-01-14T06:01:00.210Z,0.00
2019-01-14T06:02:53.582Z,0.00
2019-01-14T06:03:53.449Z,0.00
2019-01-14T06:05:46.279Z,0.00
2019-01-14T06:06:46.120Z,0.00
2019-01-14T06:08:44.032Z,0.00
2019-01-14T06:09:43.899Z,0.00
2019-01-14T06:11:41.793Z,0.00
2019-01-14T06:12:41.660Z,0.00
2019-01-14T06:14:37.603Z,0.00
2019-01-14T06:15:37.393Z,0.00
2019-01-14T06:17:30.259Z,0.00
2019-01-14T06:18:30.121Z,0.00
2019-01-14T06:20:23.338Z,0.00
2019-01-14T06:21:23.172Z,0.00
2019-01-14T06:23:16.066Z,0.00
2019-01-14T06:24:15.931Z,0.00
2019-01-14T06:26:08.812Z,0.00
2019-01-14T06:27:08.682Z,0.00
2019-01-14T06:29:02.082Z,0.00
2019-01-14T06:30:01.938Z,0.00
2019-01-14T06:31:54.847Z,0.00
2019-01-14T06:32:54.694Z,0.00
2019-01-14T06:34:47.567Z,0.00
2019-01-14T06:35:47.435Z,0.00
2019-01-14T06:37:40.327Z,0.00
2019-01-14T06:38:40.188Z,0.00
2019-01-14T06:40:33.074Z,0.00
2019-01-14T06:41:32.949Z,0.00
2019-01-14T06:43:25.842Z,0.00
2019-01-14T06:44:25.691Z,0.00
2019-01-14T06:46:18.684Z,0.00
2019-01-14T06:47:18.551Z,0.00
2019-01-14T06:49:11.413Z,0.00
2019-01-14T06:50:11.289Z,0.00
2019-01-14T06:52:04.174Z,0.00
2019-01-14T06:53:04.049Z,0.00
2019-01-14T06:54:56.923Z,0.00
2019-01-14T06:55:56.796Z,0.00
2019-01-14T06:57:50.142Z,0.00
2019-01-14T06:58:49.550Z,0.00
2019-01-14T07:00:42.409Z,0.00
2019-01-14T07:01:42.290Z,0.00
2019-01-14T07:03:35.165Z,0.00
2019-01-14T07:04:35.049Z,0.00
2019-01-14T07:06:27.935Z,0.00
2019-01-14T07:07:27.793Z,0.00
2019-01-14T07:09:20.630Z,0.00
2019-01-14T07:10:20.496Z,0.00
2019-01-14T07:12:13.435Z,0.00
2019-01-14T07:13:13.191Z,0.00
2019-01-14T07:15:06.011Z,0.00
2019-01-14T07:16:05.908Z,0.00
2019-01-14T07:17:58.711Z,0.00
2019-01-14T07:18:58.604Z,0.00
2019-01-14T07:20:51.403Z,0.00
2019-01-14T07:21:51.283Z,0.00
2019-01-14T07:23:44.102Z,0.00
2019-01-14T07:24:43.977Z,0.00
2019-01-14T07:26:36.863Z,0.00
2019-01-14T07:27:36.755Z,0.00
2019-01-14T07:29:29.611Z,0.00
2019-01-14T07:30:29.472Z,0.00
2019-01-14T07:32:22.368Z,0.00
2019-01-14T07:33:22.230Z,0.00
2019-01-14T07:35:15.228Z,0.00
2019-01-14T07:36:15.083Z,0.00
2019-01-14T07:38:07.956Z,0.00
2019-01-14T07:39:07.828Z,0.00
2019-01-14T07:41:00.711Z,0.00
2019-01-14T07:42:00.589Z,0.00
2019-01-14T07:43:53.452Z,0.00
2019-01-14T07:44:53.333Z,0.00
2019-01-14T07:46:46.207Z,0.00
2019-01-14T07:47:46.077Z,5.63
2019-01-14T07:49:38.956Z,5.63
2019-01-14T07:50:38.824Z,5.63
2019-01-14T07:52:32.150Z,0.00
2019-01-14T07:53:32.039Z,0.00
2019-01-14T07:55:24.830Z,0.00
2019-01-14T07:56:24.686Z,0.00
2019-01-14T07:58:17.517Z,0.00
2019-01-14T07:59:17.390Z,0.00
2019-01-14T08:01:10.283Z,0.00
2019-01-14T08:02:10.140Z,0.00
2019-01-14T08:04:03.028Z,0.00
2019-01-14T08:05:02.881Z,0.00
2019-01-14T08:06:55.700Z,0.00
2019-01-14T08:07:55.595Z,0.00
2019-01-14T08:09:48.360Z,0.00
2019-01-14T08:10:48.267Z,0.00
2019-01-14T08:12:41.120Z,0.00
2019-01-14T08:13:40.980Z,0.00
2019-01-14T08:15:33.763Z,5.63
2019-01-14T08:16:33.623Z,5.63
2019-01-14T08:18:26.550Z,0.00
2019-01-14T08:19:26.420Z,0.00
2019-01-14T08:21:19.312Z,0.00
2019-01-14T08:22:19.179Z,0.00
2019-01-14T08:24:12.063Z,0.00
2019-01-14T08:25:11.925Z,0.00
2019-01-14T08:27:04.802Z,0.00
2019-01-14T08:28:04.675Z,0.00
2019-01-14T08:29:57.554Z,0.00
2019-01-14T08:30:57.442Z,0.00
2019-01-14T08:32:50.300Z,0.00
2019-01-14T08:33:50.189Z,0.00
2019-01-14T08:35:43.077Z,0.00
2019-01-14T08:36:42.957Z,5.63
2019-01-14T08:38:35.819Z,11.25
2019-01-14T08:39:35.681Z,11.25
2019-01-14T08:41:28.542Z,11.25
2019-01-14T08:42:28.423Z,11.25
2019-01-14T08:44:21.307Z,11.25
2019-01-14T08:45:21.170Z,11.25
2019-01-14T08:47:14.050Z,11.25
2019-01-14T08:48:13.916Z,11.25
2019-01-14T08:50:06.857Z,11.25
2019-01-14T08:51:06.664Z,11.25
2019-01-14T08:52:59.578Z,11.25
2019-01-14T08:53:59.418Z,11.25
2019-01-14T08:55:52.327Z,11.25
2019-01-14T08:56:52.161Z,11.25
2019-01-14T08:58:45.055Z,11.25
2019-01-14T08:59:44.935Z,16.88
2019-01-14T09:01:37.761Z,16.88
2019-01-14T09:02:37.667Z,16.88
2019-01-14T09:04:32.559Z,16.88
2019-01-14T09:05:30.286Z,16.88
2019-01-14T09:07:23.098Z,16.88
2019-01-14T09:08:28.673Z,16.88
2019-01-14T09:10:15.793Z,22.50
2019-01-14T09:11:15.654Z,28.13
2019-01-14T09:13:08.517Z,28.13
2019-01-14T09:14:08.370Z,28.13
2019-01-14T09:16:01.257Z,28.13
2019-01-14T09:17:01.103Z,28.13
2019-01-14T09:18:53.986Z,33.75
2019-01-14T09:19:54.034Z,33.75
2019-01-14T09:21:46.734Z,33.75
2019-01-14T09:22:46.623Z,33.75
2019-01-14T09:24:39.506Z,33.75
2019-01-14T09:25:39.354Z,33.75
2019-01-14T09:27:32.188Z,33.75
2019-01-14T09:28:32.062Z,33.75
2019-01-14T09:30:24.833Z,33.75
2019-01-14T09:31:24.702Z,33.75
2019-01-14T09:33:17.566Z,33.75
2019-01-14T09:34:17.406Z,28.13
2019-01-14T09:36:10.227Z,33.75
2019-01-14T09:37:10.089Z,33.75
2019-01-14T09:39:02.937Z,33.75
2019-01-14T09:40:02.843Z,33.75
2019-01-14T09:41:55.690Z,39.38
2019-01-14T09:42:55.563Z,39.38
2019-01-14T09:44:48.439Z,39.38
2019-01-14T09:45:48.320Z,39.38
2019-01-14T09:47:41.676Z,39.38
2019-01-14T09:48:41.560Z,39.38
2019-01-14T09:50:34.447Z,28.13
2019-01-14T09:51:34.304Z,28.13
2019-01-14T09:53:27.202Z,28.13
2019-01-14T09:54:27.057Z,28.13
2019-01-14T09:56:19.936Z,33.75
2019-01-14T09:57:19.808Z,33.75
2019-01-14T09:59:12.701Z,33.75
2019-01-14T10:00:12.562Z,33.75
2019-01-14T10:02:05.440Z,33.75
2019-01-14T10:03:05.301Z,33.75
2019-01-14T10:04:58.205Z,33.75
2019-01-14T10:05:58.102Z,33.75
2019-01-14T10:07:50.949Z,33.75
2019-01-14T10:08:50.811Z,39.38
2019-01-14T10:10:43.692Z,33.75
2019-01-14T10:11:43.572Z,28.13
2019-01-14T10:13:36.398Z,28.13
2019-01-14T10:14:36.243Z,22.50
2019-01-14T10:16:29.988Z,22.50
2019-01-14T10:17:28.891Z,22.50
2019-01-14T10:19:21.732Z,22.50
2019-01-14T10:20:21.639Z,22.50
2019-01-14T10:22:14.488Z,22.50
2019-01-14T10:23:14.353Z,16.88
2019-01-14T10:25:07.271Z,22.50
2019-01-14T10:26:07.092Z,22.50
2019-01-14T10:27:59.988Z,28.13
2019-01-14T10:28:59.854Z,33.75
2019-01-14T10:30:52.752Z,33.75
2019-01-14T10:31:52.596Z,28.13
2019-01-14T10:33:45.473Z,28.13
2019-01-14T10:34:45.344Z,28.13
2019-01-14T10:36:38.331Z,22.50
2019-01-14T10:37:38.195Z,22.50
2019-01-14T10:39:31.093Z,28.13
2019-01-14T10:40:30.946Z,33.75
2019-01-14T10:42:23.833Z,33.75
2019-01-14T10:43:23.698Z,33.75
2019-01-14T10:45:16.585Z,28.13
2019-01-14T10:46:16.443Z,28.13
2019-01-14T10:48:09.324Z,22.50
2019-01-14T10:49:09.193Z,22.50
2019-01-14T10:51:02.082Z,16.88
2019-01-14T10:52:01.945Z,16.88
2019-01-14T10:53:55.316Z,16.88
2019-01-14T10:54:55.001Z,16.88
2019-01-14T10:56:47.894Z,16.88
2019-01-14T10:57:47.776Z,16.88
2019-01-14T10:59:40.562Z,28.13
2019-01-14T11:00:40.442Z,28.13
2019-01-14T11:02:33.286Z,33.75
2019-01-14T11:03:33.167Z,33.75
2019-01-14T11:05:26.065Z,33.75
2019-01-14T11:06:25.980Z,39.38
2019-01-14T11:08:18.849Z,45.00
2019-01-14T11:09:18.602Z,45.00
2019-01-14T11:11:11.357Z,50.63
2019-01-14T11:12:11.231Z,50.63
2019-01-14T11:14:04.003Z,50.63
2019-01-14T11:15:03.877Z,56.25
2019-01-14T11:16:56.638Z,56.25
2019-01-14T11:17:56.519Z,61.88
2019-01-14T11:19:49.381Z,78.75
2019-01-14T11:20:49.238Z,78.75
2019-01-14T11:22:42.133Z,95.63
2019-01-14T11:23:41.986Z,78.75
2019-01-14T11:25:34.868Z,78.75
2019-01-14T11:26:34.754Z,73.13
2019-01-14T11:28:27.667Z,78.75
2019-01-14T11:29:27.487Z,73.13
2019-01-14T11:31:20.880Z,73.13
2019-01-14T11:32:20.773Z,73.13
2019-01-14T11:34:13.642Z,61.88
2019-01-14T11:35:13.517Z,56.25
2019-01-14T11:37:06.380Z,39.38
2019-01-14T11:38:06.253Z,33.75
2019-01-14T11:39:59.131Z,33.75
2019-01-14T11:40:58.997Z,33.75
2019-01-14T11:42:51.909Z,33.75
2019-01-14T11:43:51.777Z,33.75
2019-01-14T11:45:44.626Z,33.75
2019-01-14T11:46:44.504Z,28.13
2019-01-14T11:48:37.394Z,22.50
2019-01-14T11:49:37.248Z,16.88
2019-01-14T11:51:30.144Z,16.88
2019-01-14T11:52:30.002Z,16.88
2019-01-14T11:54:22.879Z,11.25
2019-01-14T11:55:22.742Z,16.88
2019-01-14T11:57:15.625Z,16.88
2019-01-14T11:58:15.503Z,22.50
2019-01-14T12:00:08.361Z,22.50
2019-01-14T12:01:08.161Z,22.50
2019-01-14T12:03:01.025Z,16.88
2019-01-14T12:04:00.897Z,11.25
2019-01-14T12:05:53.774Z,11.25
2019-01-14T12:06:53.644Z,11.25
2019-01-14T12:08:46.516Z,11.25
2019-01-14T12:09:46.412Z,16.88
2019-01-14T12:11:39.753Z,16.88
2019-01-14T12:12:39.158Z,16.88
2019-01-14T12:14:32.021Z,16.88
2019-01-14T12:15:31.926Z,16.88
2019-01-14T12:17:24.696Z,16.88
2019-01-14T12:18:24.556Z,16.88
2019-01-14T12:20:17.419Z,16.88
2019-01-14T12:21:17.285Z,22.50
2019-01-14T12:23:10.190Z,28.13
2019-01-14T12:24:10.037Z,28.13
2019-01-14T12:26:02.914Z,28.13
2019-01-14T12:27:02.782Z,33.75
2019-01-14T12:28:55.771Z,39.38
2019-01-14T12:29:55.636Z,39.38
2019-01-14T12:31:48.732Z,39.38
2019-01-14T12:32:48.593Z,39.38
2019-01-14T12:34:41.486Z,33.75
2019-01-14T12:35:41.342Z,28.13
2019-01-14T12:37:34.139Z,28.13
2019-01-14T12:38:34.002Z,22.50
2019-01-14T12:40:26.886Z,16.88
2019-01-14T12:41:26.746Z,16.88
2019-01-14T12:43:20.212Z,16.88
2019-01-14T12:44:19.488Z,11.25
2019-01-14T12:46:12.384Z,11.25
2019-01-14T12:47:12.237Z,5.63
2019-01-14T12:49:05.124Z,11.25
2019-01-14T12:50:04.993Z,11.25
2019-01-14T12:51:57.880Z,16.88
2019-01-14T12:52:57.738Z,22.50
2019-01-14T12:54:50.629Z,28.13
2019-01-14T12:55:50.483Z,33.75
2019-01-14T12:57:43.373Z,33.75
2019-01-14T12:58:43.237Z,33.75
2019-01-14T13:00:36.128Z,33.75
2019-01-14T13:01:36.016Z,28.13
2019-01-14T13:03:28.825Z,28.13
2019-01-14T13:04:28.656Z,28.13
2019-01-14T13:06:21.447Z,33.75
2019-01-14T13:07:21.303Z,33.75
2019-01-14T13:09:14.120Z,33.75
2019-01-14T13:10:13.951Z,33.75
2019-01-14T13:12:06.832Z,33.75
2019-01-14T13:13:06.609Z,33.75
2019-01-14T13:14:59.477Z,28.13
2019-01-14T13:15:59.333Z,28.13
2019-01-14T13:17:52.218Z,22.50
2019-01-14T13:18:52.085Z,16.88
2019-01-14T13:20:44.963Z,11.25
2019-01-14T13:21:44.827Z,11.25
2019-01-14T13:23:37.727Z,11.25
2019-01-14T13:24:37.609Z,11.25
2019-01-14T13:26:30.453Z,11.25
2019-01-14T13:27:30.324Z,16.88
2019-01-14T13:29:23.303Z,22.50
2019-01-14T13:30:23.227Z,28.13
2019-01-14T13:32:16.060Z,33.75
2019-01-14T13:33:15.950Z,33.75
2019-01-14T13:35:08.842Z,28.13
2019-01-14T13:36:08.718Z,28.13
2019-01-14T13:38:01.579Z,28.13
2019-01-14T13:39:01.427Z,28.13
2019-01-14T13:40:54.749Z,28.13
2019-01-14T13:41:54.488Z,22.50
2019-01-14T13:43:47.383Z,22.50
2019-01-14T13:44:47.229Z,16.88
2019-01-14T13:46:40.112Z,11.25
2019-01-14T13:47:39.984Z,11.25
2019-01-14T13:49:32.864Z,5.63
2019-01-14T13:50:32.729Z,5.63
2019-01-14T13:52:25.637Z,5.63
2019-01-14T13:53:25.483Z,0.00
2019-01-14T13:55:18.360Z,0.00
2019-01-14T13:56:18.243Z,0.00
2019-01-14T13:58:11.111Z,0.00
2019-01-14T13:59:10.980Z,0.00
2019-01-14T14:01:03.879Z,5.63
2019-01-14T14:02:03.760Z,5.63
2019-01-14T14:03:56.610Z,11.25
2019-01-14T14:04:56.497Z,16.88
2019-01-14T14:06:49.406Z,11.25
2019-01-14T14:07:49.247Z,11.25
2019-01-14T14:09:42.147Z,5.63
2019-01-14T14:10:41.991Z,5.63
2019-01-14T14:12:34.774Z,5.63
2019-01-14T14:13:34.624Z,5.63
2019-01-14T14:15:27.502Z,16.88
2019-01-14T14:16:27.385Z,22.50
2019-01-14T14:18:20.257Z,22.50
2019-01-14T14:19:20.120Z,28.13
2019-01-14T14:21:12.911Z,33.75
2019-01-14T14:22:12.771Z,33.75
2019-01-14T14:24:05.671Z,39.38
2019-01-14T14:25:05.528Z,39.38
2019-01-14T14:26:58.412Z,33.75
2019-01-14T14:27:58.322Z,33.75
2019-01-14T14:29:51.161Z,28.13
2019-01-14T14:30:51.017Z,22.50
2019-01-14T14:32:43.903Z,22.50
2019-01-14T14:33:43.764Z,22.50
2019-01-14T14:35:37.182Z,16.88
2019-01-14T14:36:37.039Z,16.88
2019-01-14T14:38:29.916Z,16.88
2019-01-14T14:39:29.794Z,16.88
2019-01-14T14:41:22.664Z,16.88
2019-01-14T14:42:22.535Z,16.88
2019-01-14T14:44:15.420Z,16.88
2019-01-14T14:45:15.293Z,16.88
2019-01-14T14:47:09.383Z,16.88
2019-01-14T14:48:08.064Z,16.88
2019-01-14T14:50:01.010Z,11.25
2019-01-14T14:51:00.895Z,11.25
2019-01-14T14:52:53.771Z,16.88
2019-01-14T14:53:53.628Z,16.88
2019-01-14T14:55:46.518Z,11.25
2019-01-14T14:56:46.382Z,11.25
2019-01-14T14:58:39.165Z,11.25
2019-01-14T14:59:39.019Z,11.25
2019-01-14T15:01:31.955Z,11.25
2019-01-14T15:02:31.789Z,11.25
2019-01-14T15:04:24.568Z,11.25
2019-01-14T15:05:24.421Z,5.63
2019-01-14T15:07:17.207Z,5.63
2019-01-14T15:08:17.070Z,5.63
2019-01-14T15:10:09.861Z,5.63
2019-01-14T15:11:09.721Z,5.63
2019-01-14T15:13:02.644Z,5.63
2019-01-14T15:14:02.478Z,0.00
2019-01-14T15:15:55.362Z,0.00
2019-01-14T15:16:55.217Z,0.00
2019-01-14T15:18:48.089Z,0.00
2019-01-14T15:19:47.972Z,0.00
2019-01-14T15:21:40.851Z,0.00
2019-01-14T15:22:40.725Z,0.00
2019-01-14T15:24:33.604Z,0.00
2019-01-14T15:25:33.481Z,0.00
2019-01-14T15:27:26.352Z,0.00
2019-01-14T15:28:26.215Z,0.00
2019-01-14T15:30:19.103Z,0.00
2019-01-14T15:31:18.977Z,0.00
2019-01-14T15:33:11.777Z,0.00
2019-01-14T15:34:11.636Z,0.00
2019-01-14T15:36:04.415Z,0.00
2019-01-14T15:37:04.270Z,0.00
2019-01-14T15:38:57.047Z,0.00
2019-01-14T15:40:03.190Z,0.00
2019-01-14T15:41:49.694Z,0.00
2019-01-14T15:42:49.555Z,0.00
2019-01-14T15:44:42.342Z,0.00
2019-01-14T15:45:42.204Z,0.00
2019-01-14T15:47:34.986Z,0.00
2019-01-14T15:48:34.842Z,0.00
2019-01-14T15:50:27.628Z,0.00
2019-01-14T15:51:27.498Z,0.00
2019-01-14T15:53:20.361Z,0.00
2019-01-14T15:54:20.162Z,0.00
2019-01-14T15:56:13.024Z,0.00
2019-01-14T15:57:12.911Z,0.00
2019-01-14T15:59:05.682Z,0.00
2019-01-14T16:00:05.543Z,0.00
2019-01-14T16:01:58.309Z,0.00
2019-01-14T16:02:58.188Z,0.00
2019-01-14T16:04:50.960Z,0.00
2019-01-14T16:05:50.824Z,0.00
2019-01-14T16:07:44.747Z,0.00
2019-01-14T16:08:44.610Z,0.00
2019-01-14T16:10:37.365Z,0.00
2019-01-14T16:11:37.240Z,0.00
2019-01-14T16:13:30.043Z,0.00
2019-01-14T16:14:29.905Z,0.00
2019-01-14T16:16:22.693Z,0.00
2019-01-14T16:17:22.567Z,0.00
2019-01-14T16:19:15.354Z,0.00
2019-01-14T16:20:15.222Z,0.00
2019-01-14T16:22:07.981Z,0.00
2019-01-14T16:23:07.859Z,0.00
2019-01-14T16:25:00.727Z,0.00
2019-01-14T16:26:00.614Z,0.00
2019-01-14T16:27:53.889Z,0.00
2019-01-14T16:28:53.753Z,0.00
2019-01-14T16:30:46.549Z,0.00
2019-01-14T16:31:46.414Z,0.00
2019-01-14T16:33:39.182Z,0.00
2019-01-14T16:34:39.497Z,0.00
2019-01-14T16:36:31.836Z,0.00
2019-01-14T16:37:31.714Z,0.00
2019-01-14T16:39:24.490Z,0.00
2019-01-14T16:40:24.401Z,0.00
2019-01-14T16:42:17.209Z,0.00
2019-01-14T16:43:17.000Z,0.00
2019-01-14T16:45:10.184Z,0.00
2019-01-14T16:46:10.050Z,0.00
2019-01-14T16:48:02.827Z,0.00
2019-01-14T16:49:02.708Z,0.00
2019-01-14T16:50:56.082Z,0.00
2019-01-14T16:51:56.008Z,0.00
2019-01-14T16:53:48.841Z,0.00
2019-01-14T16:54:48.621Z,0.00
2019-01-14T16:56:42.022Z,0.00
2019-01-14T16:57:41.867Z,0.00
2019-01-14T16:59:34.638Z,0.00
2019-01-14T17:00:34.517Z,0.00
2019-01-14T17:02:28.025Z,0.00
2019-01-14T17:03:27.878Z,0.00
2019-01-14T17:05:20.771Z,0.00
2019-01-14T17:06:20.629Z,0.00
2019-01-14T17:08:13.617Z,0.00
2019-01-14T17:09:13.496Z,0.00
2019-01-14T17:11:06.257Z,0.00
2019-01-14T17:12:06.129Z,0.00
2019-01-14T17:13:59.107Z,0.00
2019-01-14T17:14:58.981Z,0.00
2019-01-14T17:16:51.779Z,0.00
2019-01-14T17:17:51.721Z,0.00
2019-01-14T17:19:44.401Z,0.00
2019-01-14T17:20:44.276Z,0.00
2019-01-14T17:22:37.625Z,0.00
2019-01-14T17:23:37.689Z,0.00
2019-01-14T17:25:30.204Z,0.00
2019-01-14T17:26:30.077Z,0.00
2019-01-14T17:28:22.866Z,0.00
2019-01-14T17:29:22.730Z,0.00
2019-01-14T17:31:15.499Z,0.00
2019-01-14T17:32:15.378Z,0.00
2019-01-14T17:34:08.246Z,0.00
2019-01-14T17:35:08.134Z,0.00
2019-01-14T17:37:00.895Z,0.00
2019-01-14T17:38:00.768Z,0.00
2019-01-14T17:39:53.556Z,0.00
2019-01-14T17:40:53.419Z,0.00
2019-01-14T17:42:46.221Z,0.00
2019-01-14T17:43:46.069Z,0.00
2019-01-14T17:45:38.856Z,0.00
2019-01-14T17:46:38.713Z,0.00
2019-01-14T17:48:31.628Z,0.00
2019-01-14T17:49:31.479Z,0.00
2019-01-14T17:51:24.265Z,0.00
2019-01-14T17:52:24.110Z,0.00
2019-01-14T17:54:16.976Z,0.00
2019-01-14T17:55:16.753Z,0.00
2019-01-14T17:57:10.043Z,0.00
2019-01-14T17:58:09.915Z,0.00
2019-01-14T18:00:02.802Z,0.00
2019-01-14T18:01:02.694Z,0.00
2019-01-14T18:02:55.450Z,0.00
2019-01-14T18:03:55.318Z,0.00
2019-01-14T18:05:48.118Z,0.00
2019-01-14T18:06:47.962Z,0.00
2019-01-14T18:08:40.743Z,0.00
2019-01-14T18:09:40.624Z,0.00
2019-01-14T18:11:33.490Z,0.00
2019-01-14T18:12:33.353Z,0.00
2019-01-14T18:14:26.243Z,0.00
2019-01-14T18:15:26.100Z,0.00
2019-01-14T18:17:19.315Z,0.00
2019-01-14T18:18:19.165Z,0.00
2019-01-14T18:20:11.943Z,0.00
2019-01-14T18:21:13.971Z,0.00
2019-01-14T18:23:04.694Z,0.00
2019-01-14T18:24:04.567Z,0.00
2019-01-14T18:25:57.453Z,0.00
2019-01-14T18:26:57.303Z,0.00
2019-01-14T18:28:50.190Z,0.00
2019-01-14T18:29:50.065Z,0.00
2019-01-14T18:31:42.955Z,0.00
2019-01-14T18:32:42.803Z,0.00
2019-01-14T18:34:35.707Z,0.00
2019-01-14T18:35:35.554Z,0.00
2019-01-14T18:37:28.421Z,0.00
2019-01-14T18:38:28.252Z,0.00
2019-01-14T18:40:21.087Z,0.00
2019-01-14T18:41:20.973Z,0.00
2019-01-14T18:43:13.771Z,0.00
2019-01-14T18:44:13.612Z,0.00
2019-01-14T18:46:06.500Z,0.00
2019-01-14T18:47:06.352Z,0.00
2019-01-14T18:48:59.349Z,0.00
2019-01-14T18:49:59.203Z,0.00
2019-01-14T18:51:52.103Z,0.00
2019-01-14T18:52:51.951Z,0.00
2019-01-14T18:54:44.736Z,0.00
2019-01-14T18:55:44.624Z,0.00
2019-01-14T18:57:44.953Z,0.00
2019-01-14T18:58:44.833Z,0.00